Time;durP1;ratioP1;P1;durP2;ratioP2;P2;SDS_P1;SDS_P2;PMS_P1;PMS_P2;Temp;Humidity;BMP_temperature;BMP_pressure;BME280_temperature;BME280_humidity;BME280_pressure;Samples;Min_cycle;Max_cycle;Signal;HPM_P1;HPM_P2
2022/10/17 00:03:07;;;;;;;;;;;;;;;9.59;100.00;101688.38;5536947;32;34521;-66
2022/10/17 00:06:15;;;;;;;;;;;;;;;9.54;100.00;101691.41;5537852;32;33017;-66
2022/10/17 00:09:23;;;;;;;;;;;;;;;9.53;100.00;101689.75;5551427;32;34853;-66
2022/10/17 00:12:30;;;;;;;;;;;;;;;9.48;100.00;101689.28;5551386;32;34239;-67
2022/10/17 00:15:37;;;;;;;;;;;;;;;9.48;100.00;101689.28;5551517;32;34880;-66
2022/10/17 00:18:46;;;;;;;;;;;;;;;9.47;100.00;101690.25;5551195;32;34175;-66
2022/10/17 00:21:52;;;;;;;;;;;;;;;9.43;100.00;101695.94;5537606;32;34755;-66
2022/10/17 00:24:59;;;;;;;;;;;;;;;9.43;100.00;101691.50;5551315;32;34510;-66
2022/10/17 00:28:08;;;;;;;;;;;;;;;9.39;100.00;101687.37;5551263;32;34349;-67
2022/10/17 00:31:16;;;;;;;;;;;;;;;9.36;100.00;101692.94;5551298;32;34270;-67
2022/10/17 00:34:24;;;;;;;;;;;;;;;9.35;100.00;101685.13;5551218;32;34205;-66
2022/10/17 00:37:33;;;;;;;;;;;;;;;9.32;100.00;101678.28;5551326;32;34952;-66
2022/10/17 00:40:43;;;;;;;;;;;;;;;9.32;100.00;101683.59;5551126;32;34519;-66
2022/10/17 00:43:53;;;;;;;;;;;;;;;9.28;100.00;101687.47;5537480;32;34804;-66
2022/10/17 00:47:02;;;;;;;;;;;;;;;9.27;100.00;101692.88;5551229;32;34338;-66
2022/10/17 00:50:12;;;;;;;;;;;;;;;9.22;100.00;101692.41;5551257;32;34981;-66
2022/10/17 00:53:18;;;;;;;;;;;;;;;9.20;100.00;101689.88;5551165;32;35050;-66
2022/10/17 00:56:26;;;;;;;;;;;;;;;9.16;100.00;101691.13;5551071;32;34633;-66
2022/10/17 00:59:35;;;;;;;;;;;;;;;9.14;100.00;101693.06;5550980;32;34905;-66
2022/10/17 01:02:43;;;;;;;;;;;;;;;9.13;100.00;101688.72;5536993;32;34559;-66
2022/10/17 01:05:50;;;;;;;;;;;;;;;9.08;100.00;101683.81;5537113;32;34575;-66
2022/10/17 01:08:58;;;;;;;;;;;;;;;9.06;100.00;101683.09;5550977;32;34315;-67
2022/10/17 01:12:11;;;;;;;;;;;;;;;9.02;100.00;101673.72;5550707;32;34397;-66
2022/10/17 01:15:18;;;;;;;;;;;;;;;9.02;100.00;101684.31;5549940;32;34899;-66
2022/10/17 01:18:27;;;;;;;;;;;;;;;9.00;100.00;101685.41;5550889;32;34271;-67
2022/10/17 01:21:39;;;;;;;;;;;;;;;9.01;100.00;101679.97;5550763;32;34700;-67
2022/10/17 01:24:48;;;;;;;;;;;;;;;9.01;100.00;101679.12;5524668;32;32754;-67
2022/10/17 01:28:04;;;;;;;;;;;;;;;9.03;100.00;101687.81;5536813;32;35371;-67
2022/10/17 01:31:15;;;;;;;;;;;;;;;8.97;100.00;101678.56;5550831;32;34380;-66
2022/10/17 01:34:21;;;;;;;;;;;;;;;8.95;100.00;101677.03;5537120;32;34262;-66
2022/10/17 01:37:32;;;;;;;;;;;;;;;8.92;100.00;101679.91;5550769;32;34159;-66
2022/10/17 01:40:40;;;;;;;;;;;;;;;8.92;100.00;101680.75;5550674;32;34257;-67
2022/10/17 01:43:50;;;;;;;;;;;;;;;8.91;100.00;101688.78;5550878;32;35195;-66
2022/10/17 01:47:09;;;;;;;;;;;;;;;8.85;100.00;101682.22;5550647;32;34270;-66
2022/10/17 01:50:20;;;;;;;;;;;;;;;8.84;100.00;101691.13;5536842;32;34708;-67
2022/10/17 01:53:35;;;;;;;;;;;;;;;8.80;100.00;101689.69;5550536;32;34730;-66
2022/10/17 01:56:43;;;;;;;;;;;;;;;8.79;100.00;101687.16;5536225;32;33061;-67
2022/10/17 01:59:52;;;;;;;;;;;;;;;8.76;100.00;101693.56;5550308;32;34828;-66
2022/10/17 02:03:01;;;;;;;;;;;;;;;8.75;100.00;101693.66;5550364;32;34899;-66
2022/10/17 02:06:08;;;;;;;;;;;;;;;8.73;100.00;101699.06;5537177;32;34342;-66
2022/10/17 02:09:19;;;;;;;;;;;;;;;8.69;100.00;101698.50;5550198;32;34255;-67
2022/10/17 02:12:44;;;;;;;;;;;;;;;8.67;100.00;101692.47;5535930;32;34987;-67
2022/10/17 02:16:19;;;;;;;;;;;;;;;8.66;100.00;101690.81;5550074;32;34975;-67
2022/10/17 02:19:41;;;;;;;;;;;;;;;8.66;100.00;101695.25;5549969;32;34213;-67
2022/10/17 02:22:51;;;;;;;;;;;;;;;8.63;100.00;101698.97;5536231;32;34588;-66
2022/10/17 02:26:02;;;;;;;;;;;;;;;8.58;100.00;101698.50;5550174;32;34228;-67
2022/10/17 02:29:24;;;;;;;;;;;;;;;8.57;100.00;101701.25;5552173;32;34268;-66
2022/10/17 02:32:37;;;;;;;;;;;;;;;8.53;100.00;101703.31;5552300;32;34950;-67
2022/10/17 02:35:45;;;;;;;;;;;;;;;8.48;100.00;101705.47;5552279;32;34839;-66
2022/10/17 02:38:55;;;;;;;;;;;;;;;8.49;100.00;101706.34;5539025;32;34359;-67
2022/10/17 02:42:03;;;;;;;;;;;;;;;8.53;100.00;101716.53;5552573;32;34247;-67
2022/10/17 02:45:13;;;;;;;;;;;;;;;8.52;100.00;101714.03;5552311;32;34332;-67
2022/10/17 02:48:24;;;;;;;;;;;;;;;8.52;100.00;101720.16;5552349;32;35099;-67
2022/10/17 02:51:40;;;;;;;;;;;;;;;8.65;100.00;101720.03;5552091;32;34820;-67
2022/10/17 02:54:50;;;;;;;;;;;;;;;8.65;100.00;101720.03;5552170;32;34283;-67
2022/10/17 02:57:59;;;;;;;;;;;;;;;8.63;100.00;101712.19;5552145;32;34327;-67
2022/10/17 03:01:05;;;;;;;;;;;;;;;8.58;100.00;101718.81;5552183;32;34738;-66
2022/10/17 03:04:13;;;;;;;;;;;;;;;8.51;100.00;101723.78;5552033;32;34894;-66
2022/10/17 03:07:19;;;;;;;;;;;;;;;8.51;100.00;101721.13;5551975;32;34968;-66
2022/10/17 03:10:25;;;;;;;;;;;;;;;8.44;100.00;101722.56;5551855;32;33957;-66
2022/10/17 03:13:30;;;;;;;;;;;;;;;8.39;100.00;101719.44;5552047;32;34346;-67
2022/10/17 03:16:40;;;;;;;;;;;;;;;8.36;100.00;101724.97;5537882;32;34280;-66
2022/10/17 03:19:47;;;;;;;;;;;;;;;8.32;100.00;101731.47;5537762;32;34633;-66
2022/10/17 03:22:57;;;;;;;;;;;;;;;8.32;100.00;101735.91;5551934;32;34663;-66
2022/10/17 03:26:06;;;;;;;;;;;;;;;8.38;100.00;101744.19;5551768;32;34590;-67
2022/10/17 03:29:16;;;;;;;;;;;;;;;8.40;100.00;101742.28;5551725;32;34621;-67
2022/10/17 03:32:23;;;;;;;;;;;;;;;8.38;100.00;101740.69;5538131;32;32779;-67
2022/10/17 03:35:29;;;;;;;;;;;;;;;8.35;100.00;101740.97;5538041;32;34629;-67
2022/10/17 03:38:35;;;;;;;;;;;;;;;8.31;100.00;101742.16;5551193;32;34688;-67
2022/10/17 03:41:42;;;;;;;;;;;;;;;8.33;100.00;101751.66;5551714;32;34472;-68
2022/10/17 03:44:50;;;;;;;;;;;;;;;8.31;100.00;101761.53;5551696;32;34408;-68
2022/10/17 03:47:57;;;;;;;;;;;;;;;8.29;100.00;101756.34;5551983;32;34840;-67
2022/10/17 03:51:05;;;;;;;;;;;;;;;8.28;100.00;101762.53;5537854;32;34545;-67
2022/10/17 03:54:12;;;;;;;;;;;;;;;8.25;100.00;101765.44;5538546;32;34182;-67
2022/10/17 03:57:18;;;;;;;;;;;;;;;8.22;100.00;101772.78;5551944;32;34302;-68
2022/10/17 04:00:24;;;;;;;;;;;;;;;8.24;100.00;101768.19;5551576;32;34331;-67
2022/10/17 04:03:31;;;;;;;;;;;;;;;8.23;100.00;101777.06;5551475;32;34220;-67
2022/10/17 04:06:38;;;;;;;;;;;;;;;8.26;100.00;101768.94;5536818;32;34978;-67
2022/10/17 04:09:47;;;;;;;;;;;;;;;8.28;100.00;101773.13;5551469;32;34534;-67
2022/10/17 04:12:54;;;;;;;;;;;;;;;8.27;100.00;101779.41;5551216;32;34905;-67
2022/10/17 04:16:01;;;;;;;;;;;;;;;8.32;100.00;101784.34;5551353;32;34896;-67
2022/10/17 04:19:11;;;;;;;;;;;;;;;8.53;100.00;101787.09;5551340;32;34354;-67
2022/10/17 04:22:17;;;;;;;;;;;;;;;8.64;100.00;101790.59;5537020;32;34462;-67
2022/10/17 04:25:24;;;;;;;;;;;;;;;8.61;100.00;101788.22;5537229;32;34770;-67
2022/10/17 04:28:32;;;;;;;;;;;;;;;8.52;100.00;101788.91;5550967;32;34842;-67
2022/10/17 04:31:39;;;;;;;;;;;;;;;8.39;100.00;101798.78;5551267;32;34250;-68
2022/10/17 04:34:48;;;;;;;;;;;;;;;8.32;100.00;101789.66;5551127;32;34703;-67
2022/10/17 04:37:55;;;;;;;;;;;;;;;8.22;100.00;101792.13;5524577;32;34402;-67
2022/10/17 04:41:04;;;;;;;;;;;;;;;8.12;100.00;101796.44;5537053;32;35202;-68
2022/10/17 04:44:09;;;;;;;;;;;;;;;8.07;100.00;101805.66;5537619;32;35264;-68
2022/10/17 04:47:15;;;;;;;;;;;;;;;8.01;100.00;101806.13;5537014;32;35767;-68
2022/10/17 04:50:18;;;;;;;;;;;;;;;8.00;100.00;101791.22;5536260;32;34239;-67
2022/10/17 04:53:38;;;;;;;;;;;;;;;8.00;100.00;101800.00;5525717;32;34507;-68
2022/10/17 04:56:42;;;;;;;;;;;;;;;7.95;100.00;101802.16;5537183;32;35110;-69
2022/10/17 04:59:48;;;;;;;;;;;;;;;7.99;100.00;101810.72;5550838;32;34990;-68
2022/10/17 05:02:53;;;;;;;;;;;;;;;7.96;100.00;101821.50;5551049;32;34639;-68
2022/10/17 05:06:02;;;;;;;;;;;;;;;7.95;100.00;101815.34;5550667;32;34907;-68
2022/10/17 05:09:07;;;;;;;;;;;;;;;7.94;100.00;101818.94;5550899;32;34804;-68
2022/10/17 05:12:13;;;;;;;;;;;;;;;7.96;100.00;101817.03;5550394;32;34448;-67
2022/10/17 05:15:17;;;;;;;;;;;;;;;7.98;100.00;101816.94;5536472;32;36441;-67
2022/10/17 05:18:21;;;;;;;;;;;;;;;7.98;100.00;101817.78;5550830;32;34300;-68
2022/10/17 05:21:29;;;;;;;;;;;;;;;8.00;100.00;101822.94;5550807;32;34239;-67
2022/10/17 05:24:32;;;;;;;;;;;;;;;8.00;100.00;101822.94;5537286;32;35082;-67
2022/10/17 05:27:37;;;;;;;;;;;;;;;8.02;100.00;101832.44;5536437;32;35404;-68
2022/10/17 05:30:42;;;;;;;;;;;;;;;8.04;100.00;101840.25;5536703;32;35668;-67
2022/10/17 05:33:46;;;;;;;;;;;;;;;8.10;100.00;101845.06;5550822;32;34288;-67
2022/10/17 05:36:50;;;;;;;;;;;;;;;8.15;100.00;101846.41;5536229;32;36384;-68
2022/10/17 05:39:55;;;;;;;;;;;;;;;8.16;100.00;101850.75;5550274;32;34230;-69
2022/10/17 05:43:00;;;;;;;;;;;;;;;8.21;100.00;101855.69;5535981;32;35163;-68
2022/10/17 05:46:04;;;;;;;;;;;;;;;8.25;100.00;101862.41;5550404;32;34636;-67
2022/10/17 05:49:09;;;;;;;;;;;;;;;8.33;100.00;101859.25;5550229;32;34455;-67
2022/10/17 05:52:33;;;;;;;;;;;;;;;8.39;100.00;101869.31;5536162;32;34322;-68
2022/10/17 05:55:39;;;;;;;;;;;;;;;8.47;100.00;101873.06;5536120;32;34835;-68
2022/10/17 05:58:43;;;;;;;;;;;;;;;8.52;100.00;101883.31;5536603;32;34868;-68
2022/10/17 06:02:00;;;;;;;;;;;;;;;8.56;100.00;101882.13;5549173;32;34275;-68
2022/10/17 06:05:04;;;;;;;;;;;;;;;8.68;100.00;101889.09;5536209;32;35318;-68
2022/10/17 06:08:07;;;;;;;;;;;;;;;8.82;100.00;101888.00;5549756;32;34326;-68
2022/10/17 06:11:12;;;;;;;;;;;;;;;8.86;100.00;101898.22;5536423;32;34823;-68
2022/10/17 06:14:15;;;;;;;;;;;;;;;8.97;100.00;101905.34;5549646;32;34690;-68
2022/10/17 06:17:19;;;;;;;;;;;;;;;9.01;100.00;101910.28;5536298;32;34310;-68
2022/10/17 06:20:24;;;;;;;;;;;;;;;9.10;100.00;101914.03;5535869;32;33747;-68
2022/10/17 06:23:27;;;;;;;;;;;;;;;9.21;100.00;101913.16;5535153;32;35209;-67
2022/10/17 06:26:30;;;;;;;;;;;;;;;9.33;100.00;101923.62;5548986;32;34890;-68
2022/10/17 06:29:34;;;;;;;;;;;;;;;9.42;100.00;101925.53;5522365;32;33177;-68
2022/10/17 06:32:37;;;;;;;;;;;;;;;9.53;100.00;101927.34;5535708;32;35618;-68
2022/10/17 06:35:42;;;;;;;;;;;;;;;9.73;100.00;101939.78;5549194;32;34676;-68
2022/10/17 06:38:46;;;;;;;;;;;;;;;9.94;100.00;101930.09;5536025;32;34310;-68
2022/10/17 06:41:51;;;;;;;;;;;;;;;9.93;100.00;101943.47;5535077;32;33760;-68
2022/10/17 06:44:54;;;;;;;;;;;;;;;9.91;100.00;101942.78;5549255;32;35091;-68
2022/10/17 06:47:58;;;;;;;;;;;;;;;9.93;100.00;101944.31;5535445;32;34718;-69
2022/10/17 06:51:03;;;;;;;;;;;;;;;10.03;100.00;101957.66;5535987;32;35019;-68
2022/10/17 06:54:09;;;;;;;;;;;;;;;10.07;100.00;101952.97;5535300;32;35033;-68
2022/10/17 06:57:13;;;;;;;;;;;;;;;10.14;100.00;101951.47;5535246;32;34403;-67
2022/10/17 07:00:18;;;;;;;;;;;;;;;10.30;100.00;101955.44;5549457;32;34949;-68
2022/10/17 07:03:23;;;;;;;;;;;;;;;10.43;100.00;101964.03;5548423;32;33206;-68
2022/10/17 07:06:26;;;;;;;;;;;;;;;10.46;100.00;101958.47;5549279;32;34323;-67
2022/10/17 07:09:30;;;;;;;;;;;;;;;10.51;100.00;101967.84;5549174;32;34296;-68
2022/10/17 07:12:34;;;;;;;;;;;;;;;10.56;100.00;101968.31;5535013;32;34378;-67
2022/10/17 07:15:39;;;;;;;;;;;;;;;10.63;100.00;101977.47;5551715;32;34708;-68
2022/10/17 07:18:47;;;;;;;;;;;;;;;10.76;100.00;101965.66;5538204;32;34884;-69
2022/10/17 07:21:53;;;;;;;;;;;;;;;10.90;100.00;101978.59;5551880;32;34283;-68
2022/10/17 07:24:57;;;;;;;;;;;;;;;11.04;100.00;101980.06;5552406;32;34223;-67
2022/10/17 07:28:01;;;;;;;;;;;;;;;11.24;100.00;101981.84;5551497;32;34501;-68
2022/10/17 07:31:07;;;;;;;;;;;;;;;11.52;100.00;101982.13;5537568;32;34731;-68
2022/10/17 07:34:09;;;;;;;;;;;;;;;11.80;100.00;101983.22;5551950;32;34897;-68
2022/10/17 07:37:13;;;;;;;;;;;;;;;12.40;100.00;101985.63;5537770;32;35639;-68
2022/10/17 07:40:19;;;;;;;;;;;;;;;13.73;97.36;101985.41;5537754;32;34199;-68
2022/10/17 07:43:22;;;;;;;;;;;;;;;15.72;85.89;101985.63;5551624;32;34644;-69
2022/10/17 07:46:25;;;;;;;;;;;;;;;17.61;72.84;101988.78;5538077;32;34222;-68
2022/10/17 07:49:28;;;;;;;;;;;;;;;19.41;64.98;101998.72;5537245;32;33914;-69
2022/10/17 07:52:31;;;;;;;;;;;;;;;20.88;55.77;101997.44;5537912;32;35185;-69
2022/10/17 07:55:38;;;;;;;;;;;;;;;20.78;55.62;102001.34;5551515;32;34202;-69
2022/10/17 07:58:42;;;;;;;;;;;;;;;22.29;53.35;102003.16;5537483;32;35712;-68
2022/10/17 08:01:47;;;;;;;;;;;;;;;22.92;47.72;102005.31;5524756;32;34594;-68
2022/10/17 08:04:51;;;;;;;;;;;;;;;24.04;45.81;102002.25;5537194;32;34870;-69
2022/10/17 08:07:55;;;;;;;;;;;;;;;24.74;43.55;102013.09;5551115;32;34666;-68
2022/10/17 08:11:03;;;;;;;;;;;;;;;22.44;47.44;102012.75;5550865;32;34282;-68
2022/10/17 08:14:07;;;;;;;;;;;;;;;24.22;43.00;102023.25;5550884;32;34375;-69
2022/10/17 08:17:11;;;;;;;;;;;;;;;25.45;40.44;102018.88;5524868;32;33019;-69
2022/10/17 08:20:16;;;;;;;;;;;;;;;26.31;38.44;102015.91;5551138;32;34365;-69
2022/10/17 08:23:19;;;;;;;;;;;;;;;23.13;41.95;102014.25;5537700;32;34110;-68
2022/10/17 08:26:22;;;;;;;;;;;;;;;19.73;51.26;102010.16;5550845;32;34267;-69
2022/10/17 08:29:26;;;;;;;;;;;;;;;17.08;61.95;101996.63;5537225;32;35353;-68
2022/10/17 08:32:29;;;;;;;;;;;;;;;17.23;62.26;102008.34;5551248;32;34887;-69
2022/10/17 08:35:33;;;;;;;;;;;;;;;16.67;62.92;102002.03;5551116;32;34251;-68
2022/10/17 08:38:38;;;;;;;;;;;;;;;16.03;66.22;102003.59;5537073;32;34541;-68
2022/10/17 08:42:04;;;;;;;;;;;;;;;15.73;69.33;102001.53;5536787;32;34295;-68
2022/10/17 08:45:10;;;;;;;;;;;;;;;15.72;68.23;102001.69;5550567;32;34882;-67
2022/10/17 08:48:16;;;;;;;;;;;;;;;15.58;68.29;102003.97;5536614;32;32719;-67
2022/10/17 08:51:23;;;;;;;;;;;;;;;15.39;69.11;102008.72;5537479;32;34779;-68
2022/10/17 08:54:37;;;;;;;;;;;;;;;15.32;68.47;102004.97;5536645;32;34569;-67
2022/10/17 08:57:40;;;;;;;;;;;;;;;15.19;68.85;102002.75;5550633;32;34735;-67
2022/10/17 09:00:49;;;;;;;;;;;;;;;15.08;69.83;102005.69;5550725;32;34496;-68
2022/10/17 09:04:11;;;;;;;;;;;;;;;15.07;70.07;101995.97;5550918;32;34976;-68
2022/10/17 09:07:24;;;;;;;;;;;;;;;14.97;70.46;101996.09;5550751;32;34159;-67
2022/10/17 09:10:28;;;;;;;;;;;;;;;14.91;74.08;102001.22;5550689;32;34257;-67
2022/10/17 09:13:31;;;;;;;;;;;;;;;15.02;71.96;102000.94;5550535;32;34957;-67
2022/10/17 09:16:48;;;;;;;;;;;;;;;15.09;72.92;101992.16;5536096;32;34009;-68
2022/10/17 09:20:09;;;;;;;;;;;;;;;15.17;71.08;101994.88;5550317;32;34241;-67
2022/10/17 09:23:20;;;;;;;;;;;;;;;15.22;70.77;101992.56;5550495;32;34207;-68
2022/10/17 09:26:25;;;;;;;;;;;;;;;15.33;70.26;101994.12;5550408;32;34709;-67
2022/10/17 09:29:28;;;;;;;;;;;;;;;15.26;72.49;101986.88;5535790;32;34087;-67
2022/10/17 09:32:41;;;;;;;;;;;;;;;15.39;69.44;101996.19;5535109;32;34715;-67
2022/10/17 09:35:46;;;;;;;;;;;;;;;15.47;68.09;101998.88;5549578;32;34908;-67
2022/10/17 09:38:54;;;;;;;;;;;;;;;15.68;68.74;101987.81;5550329;32;34854;-67
2022/10/17 09:41:58;;;;;;;;;;;;;;;15.94;67.10;101991.22;5550741;32;34858;-68
2022/10/17 09:45:14;;;;;;;;;;;;;;;15.86;68.34;101993.88;5525046;32;35004;-67
2022/10/17 09:48:28;;;;;;;;;;;;;;;15.88;68.03;101991.84;5550546;32;34365;-69
2022/10/17 09:51:32;;;;;;;;;;;;;;;16.03;65.20;101986.69;5550168;32;34470;-67
2022/10/17 09:54:39;;;;;;;;;;;;;;;16.22;65.54;101985.56;5550590;32;34873;-68
2022/10/17 09:57:52;;;;;;;;;;;;;;;16.23;66.70;101987.25;5536643;32;34383;-67
2022/10/17 10:01:13;;;;;;;;;;;;;;;16.33;64.22;101985.25;5549846;32;34725;-68
2022/10/17 10:04:25;;;;;;;;;;;;;;;16.40;62.00;101987.13;5549888;32;34549;-69
2022/10/17 10:07:38;;;;;;;;;;;;;;;16.53;60.98;101989.28;5537606;32;34281;-68
2022/10/17 10:10:42;;;;;;;;;;;;;;;16.72;59.14;101972.06;5536163;32;34147;-67
2022/10/17 10:13:46;;;;;;;;;;;;;;;16.95;58.40;101984.56;5549527;32;34201;-67
2022/10/17 10:16:52;;;;;;;;;;;;;;;16.92;60.59;101974.22;5536099;32;34406;-67
2022/10/17 10:19:55;;;;;;;;;;;;;;;16.89;58.83;101987.13;5536216;32;32732;-67
2022/10/17 10:23:05;;;;;;;;;;;;;;;17.12;57.13;101974.66;5549540;32;34352;-67
2022/10/17 10:26:21;;;;;;;;;;;;;;;17.24;59.90;101972.44;5549452;32;34585;-67
2022/10/17 10:29:31;;;;;;;;;;;;;;;17.28;58.16;101969.22;5549556;32;34311;-68
2022/10/17 10:32:35;;;;;;;;;;;;;;;17.35;58.43;101969.37;5535978;32;34244;-68
2022/10/17 10:35:40;;;;;;;;;;;;;;;17.43;58.81;101973.91;5549536;32;35074;-68
2022/10/17 10:38:50;;;;;;;;;;;;;;;17.56;57.61;101961.59;5535781;32;35196;-68
2022/10/17 10:41:54;;;;;;;;;;;;;;;17.73;57.57;101963.22;5536128;32;34220;-67
2022/10/17 10:45:02;;;;;;;;;;;;;;;17.78;57.97;101966.19;5549572;32;34353;-67
2022/10/17 10:48:23;;;;;;;;;;;;;;;17.96;55.23;101965.09;5537066;32;35053;-67
2022/10/17 10:51:38;;;;;;;;;;;;;;;18.19;55.48;101956.03;5552074;32;34360;-67
2022/10/17 10:54:54;;;;;;;;;;;;;;;18.42;53.83;101957.88;5552244;32;34700;-67
2022/10/17 10:57:58;;;;;;;;;;;;;;;19.26;53.70;101960.25;5537906;32;33455;-67
2022/10/17 11:01:05;;;;;;;;;;;;;;;22.58;45.09;101959.50;5551324;32;34088;-67
2022/10/17 11:04:08;;;;;;;;;;;;;;;25.68;36.53;101967.41;5537900;32;35108;-69
2022/10/17 11:07:14;;;;;;;;;;;;;;;28.84;31.07;101969.44;5538143;32;35268;-67
2022/10/17 11:10:20;;;;;;;;;;;;;;;26.53;33.37;101959.06;5537588;32;34737;-67
2022/10/17 11:13:28;;;;;;;;;;;;;;;26.65;32.78;101962.59;5551642;32;34560;-68
2022/10/17 11:16:40;;;;;;;;;;;;;;;26.43;33.21;101959.63;5551703;32;34256;-68
2022/10/17 11:20:03;;;;;;;;;;;;;;;27.05;32.03;101960.84;5537314;32;34555;-68
2022/10/17 11:23:09;;;;;;;;;;;;;;;30.30;28.57;101951.25;5551512;32;34275;-67
2022/10/17 11:26:24;;;;;;;;;;;;;;;29.05;28.82;101949.50;5538050;32;34219;-68
2022/10/17 11:29:28;;;;;;;;;;;;;;;29.84;27.85;101951.84;5537681;32;35039;-69
2022/10/17 11:32:47;;;;;;;;;;;;;;;28.89;28.71;101947.66;5551233;32;35004;-68
2022/10/17 11:35:54;;;;;;;;;;;;;;;31.80;25.18;101940.59;5551450;32;34964;-69
2022/10/17 11:39:03;;;;;;;;;;;;;;;32.19;24.53;101941.78;5551469;32;35037;-69
2022/10/17 11:42:17;;;;;;;;;;;;;;;34.81;22.06;101938.00;5537686;32;34281;-69
2022/10/17 11:45:25;;;;;;;;;;;;;;;31.85;24.75;101933.22;5537935;32;32723;-69
2022/10/17 11:48:33;;;;;;;;;;;;;;;29.60;27.22;101935.75;5551608;32;34899;-69
2022/10/17 11:51:48;;;;;;;;;;;;;;;29.42;28.12;101936.09;5537510;32;34860;-69
2022/10/17 11:55:14;;;;;;;;;;;;;;;29.61;27.11;101926.47;5537913;32;33114;-69
2022/10/17 11:58:18;;;;;;;;;;;;;;;33.15;23.21;101927.03;5551307;32;34873;-68
2022/10/17 12:01:22;;;;;;;;;;;;;;;30.61;25.84;101917.53;5550939;32;34405;-68
2022/10/17 12:04:45;;;;;;;;;;;;;;;32.62;24.91;101923.88;5537508;32;33355;-68
2022/10/17 12:08:00;;;;;;;;;;;;;;;31.93;25.49;101918.09;5551730;32;34927;-68
2022/10/17 12:11:09;;;;;;;;;;;;;;;31.35;25.88;101905.59;5551046;32;34461;-69
2022/10/17 12:14:31;;;;;;;;;;;;;;;30.85;26.14;101911.66;5550847;32;34321;-68
2022/10/17 12:17:38;;;;;;;;;;;;;;;29.15;28.35;101914.13;5550821;32;34944;-69
2022/10/17 12:20:41;;;;;;;;;;;;;;;26.84;31.52;101901.50;5550877;32;34322;-71
2022/10/17 12:23:52;;;;;;;;;;;;;;;25.89;33.39;101893.50;5537380;32;34807;-68
2022/10/17 12:26:55;;;;;;;;;;;;;;;23.99;36.66;101895.50;5550697;32;34947;-67
2022/10/17 12:30:11;;;;;;;;;;;;;;;22.64;40.80;101879.38;5550854;32;34864;-67
2022/10/17 12:33:21;;;;;;;;;;;;;;;23.13;39.51;101885.13;5550359;32;35015;-67
2022/10/17 12:36:27;;;;;;;;;;;;;;;22.64;40.43;101877.53;5536484;32;34707;-67
2022/10/17 12:39:30;;;;;;;;;;;;;;;22.40;40.70;101872.75;5551100;32;34177;-67
2022/10/17 12:42:45;;;;;;;;;;;;;;;22.14;41.14;101876.28;5550398;32;34868;-67
2022/10/17 12:45:52;;;;;;;;;;;;;;;21.96;40.41;101874.22;5536190;32;34379;-68
2022/10/17 12:49:02;;;;;;;;;;;;;;;21.92;41.24;101874.81;5536706;32;33985;-66
2022/10/17 12:52:15;;;;;;;;;;;;;;;21.83;44.44;101876.88;5550708;32;34635;-67
2022/10/17 12:55:23;;;;;;;;;;;;;;;21.74;43.01;101871.84;5550408;32;34158;-66
2022/10/17 12:58:28;;;;;;;;;;;;;;;21.75;42.17;101873.50;5536748;32;34266;-67
2022/10/17 13:01:36;;;;;;;;;;;;;;;21.63;42.24;101867.91;5550916;32;34941;-67
2022/10/17 13:04:41;;;;;;;;;;;;;;;21.48;43.28;101861.81;5536966;32;34477;-67
2022/10/17 13:07:47;;;;;;;;;;;;;;;21.62;42.71;101867.06;5537124;32;33018;-66
2022/10/17 13:10:52;;;;;;;;;;;;;;;21.21;43.26;101864.41;5535756;32;35021;-67
2022/10/17 13:14:00;;;;;;;;;;;;;;;21.17;46.19;101855.06;5550606;32;34685;-68
2022/10/17 13:17:19;;;;;;;;;;;;;;;21.04;48.37;101860.37;5550866;32;34375;-67
2022/10/17 13:20:27;;;;;;;;;;;;;;;21.06;46.10;101852.06;5537232;32;35075;-67
2022/10/17 13:23:34;;;;;;;;;;;;;;;20.89;46.13;101856.16;5536924;32;34141;-65
2022/10/17 13:26:44;;;;;;;;;;;;;;;20.81;47.43;101854.47;5550634;32;34838;-66
2022/10/17 13:29:48;;;;;;;;;;;;;;;20.76;47.53;101852.38;5536389;32;33620;-66
2022/10/17 13:32:53;;;;;;;;;;;;;;;20.56;46.31;101848.72;5536799;32;33941;-66
2022/10/17 13:35:57;;;;;;;;;;;;;;;20.55;43.17;101844.34;5524115;32;33615;-67
2022/10/17 13:39:07;;;;;;;;;;;;;;;20.59;43.23;101853.69;5536628;32;35071;-66
2022/10/17 13:42:24;;;;;;;;;;;;;;;20.69;41.78;101847.94;5550429;32;34907;-66
2022/10/17 13:45:29;;;;;;;;;;;;;;;20.72;44.23;101848.38;5550082;32;34429;-66
2022/10/17 13:48:35;;;;;;;;;;;;;;;20.63;43.59;101849.56;5549819;32;34950;-67
2022/10/17 13:51:42;;;;;;;;;;;;;;;20.62;43.98;101839.81;5549721;32;34636;-67
2022/10/17 13:54:49;;;;;;;;;;;;;;;20.47;45.65;101847.19;5535830;32;34805;-66
2022/10/17 13:57:54;;;;;;;;;;;;;;;20.47;44.19;101838.28;5549763;32;35058;-67
2022/10/17 14:00:58;;;;;;;;;;;;;;;20.32;46.07;101836.53;5550222;32;34332;-66
2022/10/17 14:04:03;;;;;;;;;;;;;;;20.01;47.48;101835.19;5549986;32;34317;-66
2022/10/17 14:07:29;;;;;;;;;;;;;;;19.91;47.26;101836.34;5549704;32;34194;-66
2022/10/17 14:10:55;;;;;;;;;;;;;;;20.00;47.25;101838.88;5525212;32;34468;-66
2022/10/17 14:14:01;;;;;;;;;;;;;;;19.96;44.40;101838.44;5549391;32;34300;-66
2022/10/17 14:17:13;;;;;;;;;;;;;;;19.89;46.06;101835.72;5535765;32;34355;-66
2022/10/17 14:20:19;;;;;;;;;;;;;;;19.73;48.04;101832.44;5536215;32;32677;-66
2022/10/17 14:23:43;;;;;;;;;;;;;;;19.71;47.30;101827.25;5553801;32;35025;-66
2022/10/17 14:26:53;;;;;;;;;;;;;;;19.54;49.72;101828.53;5542275;32;34121;-66
2022/10/17 14:30:02;;;;;;;;;;;;;;;19.38;48.41;101826.87;5541513;32;34800;-67
2022/10/17 14:33:12;;;;;;;;;;;;;;;19.36;48.21;101825.41;5555323;32;34223;-67
2022/10/17 14:36:16;;;;;;;;;;;;;;;19.24;50.22;101832.28;5541555;32;32597;-65
2022/10/17 14:39:23;;;;;;;;;;;;;;;19.18;49.44;101830.34;5541550;32;34294;-66
2022/10/17 14:42:28;;;;;;;;;;;;;;;19.16;49.14;101833.25;5555632;32;34248;-66
2022/10/17 14:45:34;;;;;;;;;;;;;;;18.94;49.47;101826.97;5554993;32;34961;-65
2022/10/17 14:48:41;;;;;;;;;;;;;;;18.82;48.98;101828.47;5555054;32;35154;-66
2022/10/17 14:52:04;;;;;;;;;;;;;;;18.77;50.79;101824.66;5555012;32;34876;-66
2022/10/17 14:55:25;;;;;;;;;;;;;;;18.70;49.97;101827.25;5541255;32;33937;-65
2022/10/17 14:58:29;;;;;;;;;;;;;;;18.57;52.28;101825.22;5528374;32;36013;-66
2022/10/17 15:01:34;;;;;;;;;;;;;;;18.41;52.62;101819.16;5554874;32;34328;-66
2022/10/17 15:04:39;;;;;;;;;;;;;;;18.26;53.66;101819.13;5540946;32;34691;-66
2022/10/17 15:07:44;;;;;;;;;;;;;;;18.37;51.70;101824.06;5528351;32;34906;-66
2022/10/17 15:10:49;;;;;;;;;;;;;;;18.27;53.30;101820.81;5527991;32;34568;-66
2022/10/17 15:13:56;;;;;;;;;;;;;;;18.11;53.74;101818.25;5554375;32;35224;-66
2022/10/17 15:17:01;;;;;;;;;;;;;;;18.02;53.10;101830.94;5554273;32;34886;-66
2022/10/17 15:20:12;;;;;;;;;;;;;;;18.01;53.52;101825.78;5540293;32;34901;-66
2022/10/17 15:23:16;;;;;;;;;;;;;;;17.88;53.82;101829.03;5540031;32;34215;-67
2022/10/17 15:26:24;;;;;;;;;;;;;;;17.77;54.14;101827.63;5539874;32;33490;-66
2022/10/17 15:29:28;;;;;;;;;;;;;;;17.76;53.48;101823.28;5554541;32;34999;-66
2022/10/17 15:32:35;;;;;;;;;;;;;;;17.75;54.54;101832.34;5554549;32;34304;-66
2022/10/17 15:35:41;;;;;;;;;;;;;;;17.55;54.66;101833.78;5550705;32;34566;-66
2022/10/17 15:38:49;;;;;;;;;;;;;;;17.41;55.86;101828.34;5536987;32;33202;-66
2022/10/17 15:41:56;;;;;;;;;;;;;;;17.31;55.57;101829.41;5536723;32;35684;-66
2022/10/17 15:45:00;;;;;;;;;;;;;;;17.18;56.48;101841.72;5537121;32;35001;-66
2022/10/17 15:48:09;;;;;;;;;;;;;;;17.03;57.50;101844.31;5538051;32;34906;-67
2022/10/17 15:51:13;;;;;;;;;;;;;;;16.81;58.48;101840.53;5537076;32;34486;-66
2022/10/17 15:54:16;;;;;;;;;;;;;;;16.63;59.03;101847.97;5551110;32;34866;-66
2022/10/17 15:57:26;;;;;;;;;;;;;;;16.46;60.46;101848.97;5525310;32;32859;-66
2022/10/17 16:00:32;;;;;;;;;;;;;;;16.28;61.37;101851.84;5537346;32;32867;-66
2022/10/17 16:03:39;;;;;;;;;;;;;;;16.12;62.12;101857.19;5551122;32;34952;-66
2022/10/17 16:06:48;;;;;;;;;;;;;;;15.97;63.09;101851.72;5551048;32;34385;-67